Airfield :
LOGIN :

Register | Disclaimer

   EN    FR    IT 

 










Legend :    VFR   Marginal VFR   IFR   Intensive IFR   Very Intensive IFR
Visi :
Ceiling :
>= 8 km
>= 3000ft
5 to 8 km
1000 to 3000 ft
1500m to 5 km
500 to 1000 ft
800 to 1500m
200 to 500 ft
< 800m
< 200 ft
Symbols :   Thunderstorms  Fog  Heavy snow  Heavy precipitations  Wind > 20 kt
SIGMETs :     Misc.  Thunderstorms  Icing  Turbulence  Mountain Waves  Volcanic Ashes






- Airport Elevation : 52 ft
- IATA code : IOM


EGNS - Isle of Man

CURRENT METAR :
  • 051850Z 12007KT 9999 BKN033 04/M02 Q1035 NOSIG

EXPIRED METARs :
  • 051820Z 11007KT 080V150 9999 BKN032 04/M02 Q1035 NOSIG
  • 051750Z 14008KT 9999 BKN031 04/M02 Q1035 NOSIG
  • 051720Z 09006KT 050V120 9999 BKN031 04/M02 Q1035 NOSIG
  • 051650Z 15005KT 100V190 9999 BKN032 05/M02 Q1034 NOSIG
  • 051620Z 13008KT 100V180 9999 BKN033 05/M02 Q1034 NOSIG
  • 051550Z 14008KT 110V170 9999 BKN033 06/M03 Q1034 NOSIG

TAF TAF EGNS
Valid from the 05 at 18:00 until the 05 at 21:00 UTC


051700Z 0518/0521 13007KT 9999 BKN035



MET'MAP, your aeronautical weather chart ! - Copyright ORBIFLY December 2007 - Disclaimer

ORBIFLY MET'MAP TEAM :

Programming & Development : Alexandra Zaïnal
Concept & original design : Baudouin d'Aumeries
Assistance for programming : Marc-Olivier Méhu
Technical & hardware support : Manuel Goepfert

Contact : metmap@orbifly.com




SOURCES & CREDITS :

   NOAA